Time;durP1;ratioP1;P1;durP2;ratioP2;P2;SDS_P1;SDS_P2;PMS_P1;PMS_P2;Temp;Humidity;BMP_temperature;BMP_pressure;BME280_temperature;BME280_humidity;BME280_pressure;Samples;Min_cycle;Max_cycle;Signal;HPM_P1;HPM_P2
2021/06/11 00:00:09;;;;;;;2.80;2.53;;;;;24.10;101872.00;;;;5099113;28;20198;-78
2021/06/11 00:02:36;;;;;;;2.92;2.60;;;;;24.00;101887.00;;;;5099747;28;20689;-78
2021/06/11 00:05:03;;;;;;;3.22;2.90;;;;;24.00;101885.00;;;;5107107;28;20294;-78
2021/06/11 00:07:29;;;;;;;2.88;2.58;;;;;24.00;101887.00;;;;5093917;28;20200;-78
2021/06/11 00:09:56;;;;;;;3.28;2.97;;;;;23.90;101886.00;;;;5089373;28;20209;-78
2021/06/11 00:12:23;;;;;;;2.72;2.47;;;;;23.90;101889.00;;;;5101153;28;20240;-78
2021/06/11 00:14:51;;;;;;;3.47;2.85;;;;;23.90;101891.00;;;;5105284;28;20255;-78
2021/06/11 00:17:18;;;;;;;2.75;2.55;;;;;23.90;101890.00;;;;5094706;28;20190;-78
2021/06/11 00:19:44;;;;;;;2.45;2.25;;;;;23.80;101892.00;;;;5109661;28;20204;-78
2021/06/11 00:22:11;;;;;;;2.80;2.55;;;;;23.80;101902.00;;;;5107600;28;20243;-78
2021/06/11 00:24:38;;;;;;;2.92;2.63;;;;;23.80;101897.00;;;;5109465;28;20209;-78
2021/06/11 00:27:06;;;;;;;4.03;3.17;;;;;23.70;101898.00;;;;5106123;28;20197;-78
2021/06/11 00:29:32;;;;;;;3.55;2.90;;;;;23.70;101900.00;;;;5108756;28;20193;-78
2021/06/11 00:32:01;;;;;;;3.17;2.83;;;;;23.70;101896.00;;;;5107687;28;20225;-78
2021/06/11 00:34:27;;;;;;;3.92;3.03;;;;;23.60;101896.00;;;;5105815;28;20710;-78
2021/06/11 00:36:54;;;;;;;3.13;2.60;;;;;23.60;101897.00;;;;5088439;28;20210;-78
2021/06/11 00:39:21;;;;;;;3.55;2.67;;;;;23.60;101896.00;;;;5108598;28;20197;-78
2021/06/11 00:41:48;;;;;;;3.92;3.25;;;;;23.60;101902.00;;;;5099246;28;20194;-78
2021/06/11 00:44:15;;;;;;;2.70;2.42;;;;;23.50;101899.00;;;;5093207;28;20210;-78
2021/06/11 00:46:41;;;;;;;3.53;2.75;;;;;23.50;101899.00;;;;5096502;28;20631;-78
2021/06/11 00:49:09;;;;;;;5.15;3.17;;;;;23.50;101897.00;;;;5100878;28;20201;-78
2021/06/11 00:51:37;;;;;;;3.42;2.85;;;;;23.50;101893.00;;;;5107439;28;20236;-78
2021/06/11 00:54:04;;;;;;;3.63;3.33;;;;;23.40;101889.00;;;;5107252;28;20591;-78
2021/06/11 00:56:31;;;;;;;3.30;2.97;;;;;23.40;101887.00;;;;5108650;28;20197;-78
2021/06/11 00:58:58;;;;;;;4.05;2.95;;;;;23.40;101887.00;;;;5107582;28;20551;-78
2021/06/11 01:01:25;;;;;;;3.47;3.10;;;;;23.40;101884.00;;;;5106516;28;20201;-78
2021/06/11 01:03:51;;;;;;;3.30;3.00;;;;;23.30;101882.00;;;;5108505;28;20533;-76
2021/06/11 01:06:21;;;;;;;4.75;2.90;;;;;23.30;101890.00;;;;5107252;28;20242;-76
2021/06/11 01:08:49;;;;;;;3.42;3.13;;;;;23.30;101895.00;;;;5099875;28;20202;-76
2021/06/11 01:11:17;;;;;;;3.08;2.75;;;;;23.30;101894.00;;;;5090317;28;20680;-76
2021/06/11 01:13:45;;;;;;;2.97;2.33;;;;;23.20;101886.00;;;;5089817;28;20194;-76
2021/06/11 01:16:12;;;;;;;5.18;3.58;;;;;23.20;101895.00;;;;5087888;28;20276;-76
2021/06/11 01:18:39;;;;;;;3.50;3.20;;;;;23.20;101886.00;;;;5103097;28;20679;-76
2021/06/11 01:21:06;;;;;;;4.07;3.60;;;;;23.20;101896.00;;;;5101785;28;20212;-77
2021/06/11 01:24:00;;;;;;;3.53;3.20;;;;;23.10;101892.00;;;;5107154;28;20209;-77
2021/06/11 01:26:30;;;;;;;6.00;3.63;;;;;23.10;101887.00;;;;5108230;28;20228;-77
2021/06/11 01:29:00;;;;;;;4.00;3.55;;;;;23.10;101887.00;;;;5107636;28;20574;-77
2021/06/11 01:31:30;;;;;;;4.07;3.65;;;;;23.00;101883.00;;;;5091205;28;20205;-77
2021/06/11 01:34:01;;;;;;;4.55;3.78;;;;;23.00;101888.00;;;;5107288;28;20245;-77
2021/06/11 01:36:34;;;;;;;4.90;3.67;;;;;23.00;101885.00;;;;5106929;28;20217;-77
2021/06/11 01:39:05;;;;;;;4.50;3.95;;;;;23.00;101884.00;;;;5104039;28;20205;-77
2021/06/11 01:41:35;;;;;;;5.53;3.53;;;;;23.00;101892.00;;;;5089365;28;20194;-77
2021/06/11 01:44:04;;;;;;;3.45;3.10;;;;;22.90;101886.00;;;;5096396;28;20214;-76
2021/06/11 01:46:33;;;;;;;4.45;3.78;;;;;22.90;101885.00;;;;5088778;28;20214;-77
2021/06/11 01:49:01;;;;;;;3.72;3.38;;;;;22.90;101888.00;;;;5087216;28;20692;-77
2021/06/11 01:51:29;;;;;;;5.88;3.28;;;;;22.90;101886.00;;;;5087311;28;20206;-77
2021/06/11 01:54:00;;;;;;;4.30;3.22;;;;;22.90;101886.00;;;;5090232;28;20653;-77
2021/06/11 01:56:28;;;;;;;4.40;3.45;;;;;22.90;101884.00;;;;5094418;28;20336;-77
2021/06/11 01:58:57;;;;;;;4.10;3.70;;;;;22.80;101882.00;;;;5106623;28;20204;-77
2021/06/11 02:01:24;;;;;;;3.47;3.10;;;;;22.80;101882.00;;;;5090077;28;20343;-77
2021/06/11 02:03:53;;;;;;;4.88;3.00;;;;;22.80;101880.00;;;;5107009;28;20712;-77
2021/06/11 02:06:21;;;;;;;4.00;3.60;;;;;22.80;101874.00;;;;5109916;28;20213;-77
2021/06/11 02:08:50;;;;;;;4.72;4.22;;;;;22.80;101862.00;;;;5096651;28;20703;-77
2021/06/11 02:11:17;;;;;;;3.80;3.28;;;;;22.80;101869.00;;;;5100190;28;20220;-77
2021/06/11 02:13:46;;;;;;;3.28;2.97;;;;;22.70;101874.00;;;;5103313;28;20217;-77
2021/06/11 02:16:15;;;;;;;5.45;4.05;;;;;22.70;101862.00;;;;5111192;28;20186;-77
2021/06/11 02:18:43;;;;;;;5.00;4.20;;;;;22.70;101859.00;;;;5101899;28;20199;-77
2021/06/11 02:21:12;;;;;;;5.22;4.03;;;;;22.70;101858.00;;;;5109327;28;20197;-77
2021/06/11 02:23:40;;;;;;;4.65;3.80;;;;;22.60;101858.00;;;;5109489;28;20887;-77
2021/06/11 02:26:12;;;;;;;4.47;4.03;;;;;22.60;101854.00;;;;5111373;28;20225;-77
2021/06/11 02:28:39;;;;;;;5.85;3.70;;;;;22.60;101842.00;;;;5111191;28;20197;-77
2021/06/11 02:31:06;;;;;;;4.07;3.67;;;;;22.60;101834.00;;;;5110907;28;20213;-77
2021/06/11 02:33:34;;;;;;;4.97;4.22;;;;;22.60;101833.00;;;;5110673;28;20225;-77
2021/06/11 02:36:00;;;;;;;4.28;3.88;;;;;22.60;101834.00;;;;5101146;28;20190;-77
2021/06/11 02:38:27;;;;;;;5.10;4.30;;;;;22.50;101827.00;;;;5106230;28;20198;-77
2021/06/11 02:40:56;;;;;;;9.07;4.78;;;;;22.50;101823.00;;;;5101952;28;20213;-77
2021/06/11 02:43:25;;;;;;;4.70;4.10;;;;;22.50;101826.00;;;;5110392;28;20218;-77
2021/06/11 02:45:57;;;;;;;5.03;4.53;;;;;22.40;101822.00;;;;5110638;28;20205;-77
2021/06/11 02:48:29;;;;;;;5.15;4.50;;;;;22.40;101812.00;;;;5109963;28;20724;-77
2021/06/11 02:51:03;;;;;;;6.15;4.32;;;;;22.40;101817.00;;;;5105303;28;20198;-77
2021/06/11 02:53:32;;;;;;;5.03;4.20;;;;;22.40;101815.00;;;;5105135;28;20218;-77
2021/06/11 02:56:01;;;;;;;6.25;4.10;;;;;22.40;101818.00;;;;5110570;28;20575;-77
2021/06/11 02:58:34;;;;;;;4.05;3.65;;;;;22.30;101811.00;;;;5109589;28;20663;-77
2021/06/11 03:01:04;;;;;;;3.88;3.47;;;;;22.30;101809.00;;;;5110286;28;20570;-77
2021/06/11 03:03:36;;;;;;;4.82;3.90;;;;;22.30;101815.00;;;;5097231;28;20191;-77
2021/06/11 03:06:05;;;;;;;4.18;3.78;;;;;22.30;101811.00;;;;5109286;28;20202;-77
2021/06/11 03:08:36;;;;;;;4.95;3.88;;;;;22.30;101804.00;;;;5096274;28;20209;-77
2021/06/11 03:11:06;;;;;;;4.68;3.95;;;;;22.30;101801.00;;;;5106089;28;20208;-77
2021/06/11 03:13:34;;;;;;;4.93;4.03;;;;;22.20;101793.00;;;;5097227;28;20209;-76
2021/06/11 03:16:02;;;;;;;5.20;4.70;;;;;22.20;101791.00;;;;5110340;28;20220;-77
2021/06/11 03:18:32;;;;;;;4.40;3.85;;;;;22.20;101796.00;;;;5103976;28;20189;-77
2021/06/11 03:21:04;;;;;;;4.22;3.83;;;;;22.20;101792.00;;;;5096667;28;20216;-77
2021/06/11 03:23:40;;;;;;;5.40;4.03;;;;;22.10;101796.00;;;;5109263;28;20197;-77
2021/06/11 03:26:08;;;;;;;5.00;4.03;;;;;22.10;101796.00;;;;5110500;28;20197;-77
2021/06/11 03:28:43;;;;;;;5.20;4.03;;;;;22.10;101796.00;;;;5096089;28;20579;-77
2021/06/11 03:31:14;;;;;;;5.03;4.53;;;;;22.10;101795.00;;;;5107154;28;20273;-77
2021/06/11 03:33:45;;;;;;;4.53;3.92;;;;;22.10;101802.00;;;;5105852;27;20771;-77
2021/06/11 03:36:19;;;;;;;5.60;4.47;;;;;22.00;101804.00;;;;5103528;28;20197;-77
2021/06/11 03:38:49;;;;;;;6.05;4.82;;;;;22.10;101810.00;;;;5108455;28;20674;-77
2021/06/11 03:41:18;;;;;;;5.25;4.75;;;;;22.00;101812.00;;;;5103199;28;20193;-77
2021/06/11 03:43:46;;;;;;;6.95;5.07;;;;;22.00;101809.00;;;;5112501;27;20213;-77
2021/06/11 03:46:15;;;;;;;6.55;5.45;;;;;22.00;101815.00;;;;5105565;28;20243;-77
2021/06/11 03:48:44;;;;;;;5.95;4.70;;;;;22.00;101809.00;;;;5104184;28;20201;-77
2021/06/11 03:51:15;;;;;;;5.55;4.97;;;;;22.00;101816.00;;;;5105756;28;20198;-77
2021/06/11 03:53:43;;;;;;;6.60;5.30;;;;;22.00;101812.00;;;;5105309;28;20742;-77
2021/06/11 03:56:12;;;;;;;8.63;5.25;;;;;22.00;101812.00;;;;5101481;28;20209;-77
2021/06/11 03:58:42;;;;;;;5.45;4.88;;;;;22.00;101809.00;;;;5109019;28;20201;-77
2021/06/11 04:01:11;;;;;;;6.82;5.30;;;;;22.00;101818.00;;;;5104959;28;20223;-77
2021/06/11 04:03:39;;;;;;;8.38;5.55;;;;;22.00;101821.00;;;;5105752;27;20206;-77
2021/06/11 04:06:11;;;;;;;5.88;5.03;;;;;22.00;101821.00;;;;5105608;28;20252;-77
2021/06/11 04:08:40;;;;;;;5.32;4.57;;;;;22.00;101823.00;;;;5103656;28;20737;-77
2021/06/11 04:11:11;;;;;;;7.38;5.47;;;;;22.00;101830.00;;;;5107219;28;20299;-76
2021/06/11 04:13:47;;;;;;;5.97;4.75;;;;;22.10;101831.00;;;;5107060;27;20225;-77
2021/06/11 04:16:18;;;;;;;7.10;5.38;;;;;22.10;101834.00;;;;5102738;28;20553;-77
2021/06/11 04:18:46;;;;;;;8.32;5.43;;;;;22.10;101833.00;;;;5101268;28;20660;-77
2021/06/11 04:21:21;;;;;;;6.90;5.45;;;;;22.10;101833.00;;;;5106043;28;20185;-77
2021/06/11 04:23:52;;;;;;;6.13;5.28;;;;;22.10;101826.00;;;;5098234;28;20199;-77
2021/06/11 04:26:21;;;;;;;6.40;4.97;;;;;22.20;101834.00;;;;5100981;28;20594;-77
2021/06/11 04:28:50;;;;;;;8.50;5.45;;;;;22.20;101831.00;;;;5104714;28;20194;-77
2021/06/11 04:31:17;;;;;;;6.82;5.57;;;;;22.20;101834.00;;;;5102392;28;20190;-77
2021/06/11 04:33:44;;;;;;;6.28;4.88;;;;;22.30;101825.00;;;;5095521;28;20244;-77
2021/06/11 04:36:12;;;;;;;7.57;5.97;;;;;22.30;101823.00;;;;5090989;28;20220;-77
2021/06/11 04:38:54;;;;;;;7.38;5.10;;;;;22.30;101826.00;;;;5099534;28;20202;-77
2021/06/11 04:41:22;;;;;;;9.93;5.13;;;;;22.40;101827.00;;;;5100197;28;20220;-77
2021/06/11 04:43:49;;;;;;;6.43;4.13;;;;;22.40;101830.00;;;;5089990;28;20763;-77
2021/06/11 04:46:16;;;;;;;6.63;5.03;;;;;22.40;101841.00;;;;5095423;28;20201;-77
2021/06/11 04:48:43;;;;;;;8.07;4.60;;;;;22.40;101842.00;;;;5100777;28;20666;-77
2021/06/11 04:51:10;;;;;;;6.35;4.95;;;;;22.40;101841.00;;;;5104168;28;20204;-77
2021/06/11 04:53:36;;;;;;;8.00;5.28;;;;;22.40;101835.00;;;;5098066;28;20214;-77
2021/06/11 04:56:07;;;;;;;6.65;4.93;;;;;22.40;101845.00;;;;5096519;28;20190;-77
2021/06/11 04:58:36;;;;;;;6.95;4.35;;;;;22.50;101845.00;;;;5106200;28;20281;-77
2021/06/11 05:01:02;;;;;;;7.43;4.53;;;;;22.50;101847.00;;;;5107278;28;20193;-77
2021/06/11 05:03:29;;;;;;;6.85;4.88;;;;;22.50;101856.00;;;;5106105;28;20194;-76
2021/06/11 05:05:56;;;;;;;5.10;4.15;;;;;22.50;101855.00;;;;5100502;28;20219;-77
2021/06/11 05:08:23;;;;;;;4.32;3.35;;;;;22.60;101850.00;;;;5099198;28;20284;-77
2021/06/11 05:10:50;;;;;;;4.32;3.13;;;;;22.60;101854.00;;;;5102748;28;20201;-76
2021/06/11 05:13:17;;;;;;;3.85;2.97;;;;;22.60;101859.00;;;;5099763;28;20272;-77
2021/06/11 05:15:45;;;;;;;3.75;3.15;;;;;22.60;101854.00;;;;5095262;28;20205;-77
2021/06/11 05:18:12;;;;;;;3.47;2.67;;;;;22.70;101861.00;;;;5098242;28;20206;-77
2021/06/11 05:20:39;;;;;;;2.95;2.65;;;;;22.70;101854.00;;;;5104249;28;20206;-77
2021/06/11 05:23:07;;;;;;;4.45;2.90;;;;;22.70;101857.00;;;;5108247;28;20248;-77
2021/06/11 05:25:34;;;;;;;4.20;3.53;;;;;22.70;101854.00;;;;5101755;28;20194;-77
2021/06/11 05:28:01;;;;;;;7.40;3.42;;;;;22.80;101859.00;;;;5096469;28;20213;-77
2021/06/11 05:30:28;;;;;;;3.95;3.22;;;;;22.80;101860.00;;;;5095364;28;20213;-77
2021/06/11 05:32:58;;;;;;;4.60;3.60;;;;;22.80;101864.00;;;;5104377;28;20221;-77
2021/06/11 05:35:25;;;;;;;3.90;3.30;;;;;22.80;101869.00;;;;5099395;28;20251;-77
2021/06/11 05:37:52;;;;;;;4.75;3.85;;;;;22.90;101864.00;;;;5102290;28;20191;-76
2021/06/11 05:40:18;;;;;;;5.15;4.40;;;;;22.90;101875.00;;;;5102850;28;20606;-78
2021/06/11 05:42:45;;;;;;;5.75;4.97;;;;;22.90;101871.00;;;;5106809;28;20749;-77
2021/06/11 05:45:13;;;;;;;8.05;5.68;;;;;22.90;101864.00;;;;5101211;28;20197;-77
2021/06/11 05:47:40;;;;;;;10.55;6.30;;;;;23.00;101871.00;;;;5111310;28;20202;-77
2021/06/11 05:50:10;;;;;;;8.75;6.95;;;;;23.00;101865.00;;;;5098141;28;20194;-77
2021/06/11 05:52:37;;;;;;;9.57;7.38;;;;;23.00;101869.00;;;;5107939;28;20610;-77
2021/06/11 05:55:05;;;;;;;10.40;6.80;;;;;23.00;101859.00;;;;5105525;28;20644;-78
2021/06/11 05:57:32;;;;;;;10.85;7.40;;;;;23.00;101859.00;;;;5107412;28;20204;-78
2021/06/11 05:59:59;;;;;;;12.82;7.70;;;;;23.00;101856.00;;;;5108019;28;20242;-78
2021/06/11 06:02:26;;;;;;;11.65;7.97;;;;;23.10;101852.00;;;;5098028;28;20212;-77
2021/06/11 06:04:53;;;;;;;11.88;8.20;;;;;23.10;101854.00;;;;5110367;28;20315;-78
2021/06/11 06:07:21;;;;;;;13.18;8.60;;;;;23.10;101859.00;;;;5098337;28;20200;-77
2021/06/11 06:09:47;;;;;;;11.27;7.85;;;;;23.20;101862.00;;;;5110586;28;20949;-77
2021/06/11 06:12:14;;;;;;;12.88;7.65;;;;;23.20;101857.00;;;;5099694;28;20275;-78
2021/06/11 06:14:41;;;;;;;10.15;7.72;;;;;23.20;101863.00;;;;5111714;28;20198;-78
2021/06/11 06:17:08;;;;;;;12.15;8.02;;;;;23.30;101857.00;;;;5105132;28;20603;-77
2021/06/11 06:19:34;;;;;;;9.35;7.60;;;;;23.30;101856.00;;;;5101502;28;20198;-78
2021/06/11 06:22:01;;;;;;;11.20;6.70;;;;;23.30;101855.00;;;;5100399;28;20663;-78
2021/06/11 06:24:29;;;;;;;9.07;6.40;;;;;23.30;101860.00;;;;5103941;28;20561;-78
2021/06/11 06:26:56;;;;;;;9.77;7.32;;;;;23.40;101857.00;;;;5107620;28;20201;-78
2021/06/11 06:29:23;;;;;;;8.82;6.80;;;;;23.40;101869.00;;;;5106249;28;20482;-78
2021/06/11 06:31:50;;;;;;;7.90;6.65;;;;;23.50;101875.00;;;;5110021;28;20201;-78
2021/06/11 06:34:16;;;;;;;7.10;5.57;;;;;23.50;101871.00;;;;5109597;28;20225;-78
2021/06/11 06:36:45;;;;;;;6.38;5.47;;;;;23.50;101876.00;;;;5109682;28;20262;-78
2021/06/11 06:39:12;;;;;;;7.90;5.95;;;;;23.50;101871.00;;;;5108599;28;20930;-78
2021/06/11 06:41:40;;;;;;;7.80;6.53;;;;;23.50;101874.00;;;;5095757;28;20202;-78
2021/06/11 06:44:07;;;;;;;9.00;6.65;;;;;23.60;101877.00;;;;5088521;28;20241;-78
2021/06/11 06:46:34;;;;;;;9.35;7.22;;;;;23.60;101879.00;;;;5104504;28;20190;-77
2021/06/11 06:49:02;;;;;;;10.00;6.95;;;;;23.60;101882.00;;;;5108046;28;20198;-75
2021/06/11 06:51:29;;;;;;;9.30;6.88;;;;;23.70;101883.00;;;;5097596;28;20276;-80
2021/06/11 06:53:56;;;;;;;8.60;6.85;;;;;23.70;101891.00;;;;5090062;28;20272;-77
2021/06/11 06:56:24;;;;;;;9.52;7.20;;;;;23.70;101890.00;;;;5097967;28;20194;-78
2021/06/11 06:58:53;;;;;;;10.10;7.60;;;;;23.80;101894.00;;;;5110004;28;20655;-78
2021/06/11 07:01:20;;;;;;;10.48;7.78;;;;;23.80;101894.00;;;;5093758;28;20206;-78
2021/06/11 07:03:46;;;;;;;10.10;7.50;;;;;23.80;101898.00;;;;5107240;28;20193;-78
2021/06/11 07:06:15;;;;;;;9.60;7.10;;;;;23.80;101904.00;;;;5093658;28;20217;-78
2021/06/11 07:08:42;;;;;;;9.18;7.15;;;;;23.80;101898.00;;;;5099568;28;20202;-78
2021/06/11 07:11:08;;;;;;;8.73;6.75;;;;;23.90;101901.00;;;;5097253;28;20229;-78
2021/06/11 07:13:35;;;;;;;10.02;6.95;;;;;23.90;101896.00;;;;5090572;28;20253;-78
2021/06/11 07:16:03;;;;;;;11.52;7.10;;;;;23.90;101889.00;;;;5090617;28;20198;-78
2021/06/11 07:18:30;;;;;;;10.60;6.88;;;;;24.00;101891.00;;;;5090114;28;20214;-78
2021/06/11 07:20:57;;;;;;;10.05;6.90;;;;;24.00;101891.00;;;;5108400;28;21803;-78
2021/06/11 07:23:24;;;;;;;8.00;6.38;;;;;24.00;101887.00;;;;5110489;28;20247;-78
2021/06/11 07:25:50;;;;;;;9.65;6.68;;;;;24.10;101877.00;;;;5110110;28;20563;-78
2021/06/11 07:28:17;;;;;;;9.40;7.38;;;;;24.10;101882.00;;;;5110033;28;20196;-77
2021/06/11 07:30:44;;;;;;;11.00;7.63;;;;;24.10;101882.00;;;;5111748;28;20200;-77
2021/06/11 07:33:12;;;;;;;8.77;6.80;;;;;24.10;101880.00;;;;5109291;28;20233;-78
2021/06/11 07:35:39;;;;;;;10.70;7.40;;;;;24.20;101887.00;;;;5109596;28;20685;-78
2021/06/11 07:38:06;;;;;;;8.85;6.97;;;;;24.20;101878.00;;;;5108933;28;20201;-77
2021/06/11 07:40:33;;;;;;;8.88;6.38;;;;;24.20;101874.00;;;;5109715;28;20205;-78
2021/06/11 07:43:02;;;;;;;9.27;6.47;;;;;24.30;101881.00;;;;5109051;28;20320;-78
2021/06/11 07:45:29;;;;;;;11.85;8.85;;;;;24.40;101881.00;;;;5109208;28;20291;-77
2021/06/11 07:47:56;;;;;;;9.65;7.82;;;;;24.40;101883.00;;;;5110882;28;20193;-78
2021/06/11 07:50:24;;;;;;;10.07;7.82;;;;;24.40;101885.00;;;;5109745;28;20778;-78
2021/06/11 07:52:51;;;;;;;10.95;8.27;;;;;24.50;101880.00;;;;5110239;28;20325;-78
2021/06/11 07:55:18;;;;;;;10.75;7.82;;;;;24.60;101893.00;;;;5111432;28;20212;-76
2021/06/11 07:57:45;;;;;;;11.27;9.05;;;;;24.60;101884.00;;;;5109397;28;20197;-77
2021/06/11 08:00:12;;;;;;;11.00;8.05;;;;;24.70;101883.00;;;;5109065;28;20201;-77
2021/06/11 08:02:40;;;;;;;11.80;8.95;;;;;24.70;101888.00;;;;5109792;28;20210;-76
2021/06/11 08:05:09;;;;;;;10.70;8.82;;;;;24.70;101895.00;;;;5108937;28;20198;-77
2021/06/11 08:07:37;;;;;;;11.65;9.63;;;;;24.80;101888.00;;;;5109746;28;20230;-76
2021/06/11 08:10:05;;;;;;;12.85;8.65;;;;;24.80;101891.00;;;;5110156;28;20663;-77
2021/06/11 08:12:32;;;;;;;13.38;10.50;;;;;24.90;101891.00;;;;5101840;28;20283;-76
2021/06/11 08:14:59;;;;;;;14.55;10.93;;;;;24.90;101895.00;;;;5090542;28;20350;-77
2021/06/11 08:17:26;;;;;;;18.48;9.02;;;;;24.90;101900.00;;;;5090513;28;20201;-77
2021/06/11 08:19:53;;;;;;;14.20;10.60;;;;;25.00;101901.00;;;;5089633;28;20289;-78
2021/06/11 08:22:20;;;;;;;12.55;9.90;;;;;25.00;101897.00;;;;5088906;28;20202;-77
2021/06/11 08:24:48;;;;;;;13.43;9.65;;;;;25.00;101904.00;;;;5089970;28;20624;-77
2021/06/11 08:27:14;;;;;;;14.05;9.85;;;;;25.10;101906.00;;;;5095350;28;20201;-77
2021/06/11 08:29:41;;;;;;;13.88;9.52;;;;;25.20;101904.00;;;;5111025;28;20228;-76
2021/06/11 08:32:08;;;;;;;10.95;8.85;;;;;25.20;101906.00;;;;5111812;28;20296;-77
2021/06/11 08:34:36;;;;;;;13.98;9.95;;;;;25.30;101902.00;;;;5110359;28;20233;-76
2021/06/11 08:37:04;;;;;;;15.43;10.32;;;;;25.30;101905.00;;;;5110547;28;20655;-76
2021/06/11 08:39:31;;;;;;;12.75;10.13;;;;;25.40;101912.00;;;;5109802;28;20200;-76
2021/06/11 08:41:59;;;;;;;13.18;10.55;;;;;25.40;101907.00;;;;5110759;28;20204;-76
2021/06/11 08:44:27;;;;;;;14.85;11.50;;;;;25.50;101917.00;;;;5109841;28;20232;-76
2021/06/11 08:46:54;;;;;;;13.63;10.40;;;;;25.50;101914.00;;;;5110394;28;20190;-77
2021/06/11 08:49:23;;;;;;;14.90;10.43;;;;;25.50;101908.00;;;;5109460;28;20577;-77
2021/06/11 08:51:51;;;;;;;16.52;10.88;;;;;25.60;101910.00;;;;5108862;28;20742;-76
2021/06/11 08:54:18;;;;;;;12.20;10.00;;;;;25.60;101905.00;;;;5108395;28;20247;-76
2021/06/11 08:56:45;;;;;;;11.10;9.43;;;;;25.60;101905.00;;;;5109362;28;20201;-75
2021/06/11 08:59:13;;;;;;;14.75;10.70;;;;;25.60;101901.00;;;;5110316;28;20211;-76
2021/06/11 09:01:41;;;;;;;13.75;10.30;;;;;25.70;101897.00;;;;5109325;28;20216;-76
2021/06/11 09:04:08;;;;;;;12.93;10.50;;;;;25.70;101898.00;;;;5109341;28;20201;-76
2021/06/11 09:06:35;;;;;;;14.13;10.65;;;;;25.80;101899.00;;;;5109985;28;20206;-76
2021/06/11 09:09:04;;;;;;;12.18;10.25;;;;;25.90;101889.00;;;;5110505;28;20208;-76
2021/06/11 09:11:33;;;;;;;14.65;11.18;;;;;25.90;101897.00;;;;5110627;28;20209;-76
2021/06/11 09:14:06;;;;;;;11.43;9.27;;;;;26.00;101890.00;;;;5107244;28;20755;-76
2021/06/11 09:16:45;;;;;;;10.13;8.77;;;;;26.00;101890.00;;;;5092939;28;20208;-77
2021/06/11 09:19:13;;;;;;;12.52;9.77;;;;;26.30;101896.00;;;;5110307;28;20201;-77
2021/06/11 09:21:43;;;;;;;13.52;10.48;;;;;26.30;101892.00;;;;5115940;28;20636;-77
2021/06/11 09:24:24;;;;;;;13.48;10.32;;;;;26.50;101887.00;;;;5118473;28;20194;-77
2021/06/11 09:27:11;;;;;;;11.00;8.68;;;;;26.60;101880.00;;;;5117238;28;20193;-77
2021/06/11 09:29:41;;;;;;;13.13;10.43;;;;;26.80;101875.00;;;;5119148;28;20664;-76
2021/06/11 09:32:16;;;;;;;12.40;9.93;;;;;26.90;101880.00;;;;5116089;28;20284;-77
2021/06/11 09:34:44;;;;;;;12.50;10.73;;;;;27.10;101888.00;;;;5116828;28;20228;-77
2021/06/11 09:37:13;;;;;;;13.13;10.27;;;;;27.20;101894.00;;;;5096115;28;20579;-77
2021/06/11 09:39:42;;;;;;;13.30;10.57;;;;;27.40;101893.00;;;;5097940;28;20213;-77
2021/06/11 09:42:10;;;;;;;13.02;10.95;;;;;27.50;101884.00;;;;5093291;28;20202;-77
2021/06/11 09:44:37;;;;;;;13.25;10.32;;;;;27.60;101885.00;;;;5097499;28;20228;-78
2021/06/11 09:47:04;;;;;;;14.70;11.23;;;;;27.70;101886.00;;;;5095916;28;20616;-77
2021/06/11 09:49:43;;;;;;;14.75;11.35;;;;;27.80;101879.00;;;;5100132;28;20221;-77
2021/06/11 09:52:11;;;;;;;14.52;11.75;;;;;28.00;101887.00;;;;5099648;28;20216;-77
2021/06/11 09:54:38;;;;;;;15.32;11.80;;;;;28.10;101888.00;;;;5119011;28;20226;-78
2021/06/11 09:57:21;;;;;;;12.45;9.60;;;;;28.20;101887.00;;;;5120735;28;20643;-78
2021/06/11 09:59:49;;;;;;;15.13;11.25;;;;;28.50;101888.00;;;;5120274;28;20202;-77
2021/06/11 10:02:17;;;;;;;15.45;12.63;;;;;28.70;101887.00;;;;5116463;28;20209;-77
2021/06/11 10:04:45;;;;;;;13.10;9.85;;;;;28.90;101888.00;;;;5120264;28;20198;-77
2021/06/11 10:07:13;;;;;;;12.98;10.85;;;;;29.00;101889.00;;;;5117614;28;20563;-77
2021/06/11 10:09:41;;;;;;;11.35;10.07;;;;;29.10;101885.00;;;;5119284;28;20206;-77
2021/06/11 10:12:09;;;;;;;13.82;11.48;;;;;29.30;101884.00;;;;5118435;28;20209;-77
2021/06/11 10:14:36;;;;;;;13.25;10.57;;;;;29.50;101893.00;;;;5097778;28;20224;-77
2021/06/11 10:17:06;;;;;;;14.15;11.52;;;;;29.60;101890.00;;;;5099640;28;20228;-77
2021/06/11 10:19:32;;;;;;;14.68;11.02;;;;;29.70;101882.00;;;;5096736;28;20202;-77
2021/06/11 10:22:01;;;;;;;12.75;10.35;;;;;29.70;101881.00;;;;5097838;28;20217;-77
2021/06/11 10:24:28;;;;;;;13.98;12.02;;;;;29.70;101887.00;;;;5095354;28;20202;-77
2021/06/11 10:26:55;;;;;;;15.18;12.52;;;;;29.80;101890.00;;;;5107074;28;20205;-77
2021/06/11 10:29:23;;;;;;;13.70;10.55;;;;;29.80;101890.00;;;;5120450;28;20201;-77
2021/06/11 10:31:50;;;;;;;12.20;10.60;;;;;29.80;101891.00;;;;5118986;28;20204;-77
2021/06/11 10:34:16;;;;;;;13.13;11.05;;;;;29.80;101880.00;;;;5118783;28;20290;-77
2021/06/11 10:36:44;;;;;;;13.32;10.13;;;;;29.80;101883.00;;;;5121766;28;20198;-77
2021/06/11 10:39:29;;;;;;;12.18;10.57;;;;;29.70;101884.00;;;;5119738;28;20233;-77
2021/06/11 10:41:58;;;;;;;15.07;11.75;;;;;29.90;101882.00;;;;5119782;28;20233;-77
2021/06/11 10:44:32;;;;;;;13.73;10.45;;;;;29.80;101879.00;;;;5120939;28;20233;-77
2021/06/11 10:47:27;;;;;;;15.23;10.60;;;;;29.80;101879.00;;;;5120760;28;20205;-77
2021/06/11 10:50:14;;;;;;;12.45;10.60;;;;;29.80;101880.00;;;;5121362;28;20275;-77
2021/06/11 10:52:45;;;;;;;13.82;10.43;;;;;29.90;101875.00;;;;5124551;28;20200;-77
2021/06/11 10:55:51;;;;;;;14.00;10.38;;;;;29.70;101876.00;;;;5121194;28;20236;-77
2021/06/11 10:58:31;;;;;;;12.98;9.82;;;;;29.80;101871.00;;;;5122229;28;20197;-77
2021/06/11 11:00:58;;;;;;;12.02;9.93;;;;;29.80;101874.00;;;;5118966;28;20205;-76
2021/06/11 11:03:30;;;;;;;13.75;10.23;;;;;29.70;101871.00;;;;5118291;28;20202;-77
2021/06/11 11:05:58;;;;;;;11.02;9.85;;;;;29.80;101861.00;;;;5118305;28;20237;-77
2021/06/11 11:08:51;;;;;;;10.85;9.63;;;;;29.70;101858.00;;;;5118388;28;20202;-77
2021/06/11 11:11:36;;;;;;;8.43;7.53;;;;;29.80;101857.00;;;;5118965;28;20224;-77
2021/06/11 11:14:05;;;;;;;11.40;9.32;;;;;30.00;101854.00;;;;5114438;28;20668;-77
2021/06/11 11:16:37;;;;;;;9.68;8.65;;;;;30.00;101859.00;;;;5115242;28;20197;-76
2021/06/11 11:19:06;;;;;;;9.90;7.47;;;;;30.10;101848.00;;;;5111794;28;20250;-78
2021/06/11 11:21:35;;;;;;;9.70;7.05;;;;;30.10;101845.00;;;;5111863;28;20189;-75
2021/06/11 11:24:05;;;;;;;8.75;7.85;;;;;30.30;101859.00;;;;5111801;28;20218;-75
2021/06/11 11:26:41;;;;;;;9.90;8.20;;;;;30.20;101847.00;;;;5111297;28;20198;-76
2021/06/11 11:29:09;;;;;;;8.30;7.25;;;;;30.30;101859.00;;;;5110166;28;20193;-75
2021/06/11 11:31:36;;;;;;;9.55;8.40;;;;;30.30;101860.00;;;;5095229;28;20195;-76
2021/06/11 11:34:03;;;;;;;10.73;8.73;;;;;30.30;101865.00;;;;5105424;28;20277;-76
2021/06/11 11:36:32;;;;;;;9.63;8.63;;;;;30.30;101864.00;;;;5096697;28;20200;-77
2021/06/11 11:38:59;;;;;;;10.05;8.68;;;;;30.30;101865.00;;;;5091471;28;20194;-77
2021/06/11 11:41:44;;;;;;;12.60;8.35;;;;;30.30;101861.00;;;;5076388;28;20222;-78
2021/06/11 11:44:11;;;;;;;8.98;7.97;;;;;30.40;101864.00;;;;5109335;28;20220;-77
2021/06/11 11:46:37;;;;;;;9.00;7.97;;;;;30.40;101864.00;;;;5107103;28;20270;-78
2021/06/11 11:49:04;;;;;;;7.60;6.75;;;;;30.40;101870.00;;;;5105457;28;20657;-79
2021/06/11 11:51:31;;;;;;;8.45;7.05;;;;;30.40;101872.00;;;;5104245;28;20193;-77
2021/06/11 11:53:58;;;;;;;8.15;6.68;;;;;30.50;101864.00;;;;5103802;28;20225;-78
2021/06/11 11:56:25;;;;;;;7.95;6.68;;;;;30.50;101870.00;;;;5101687;28;20194;-80
2021/06/11 11:58:53;;;;;;;6.65;5.80;;;;;30.50;101871.00;;;;5089490;28;20210;-80
2021/06/11 12:01:20;;;;;;;7.63;6.85;;;;;30.60;101874.00;;;;5089370;28;20198;-80
2021/06/11 12:03:46;;;;;;;10.43;6.50;;;;;30.60;101879.00;;;;5089756;28;20202;-76
2021/06/11 12:06:13;;;;;;;7.85;7.05;;;;;30.60;101875.00;;;;5090322;28;20194;-76
2021/06/11 12:08:40;;;;;;;6.57;5.60;;;;;30.60;101874.00;;;;5099458;28;20201;-76
2021/06/11 12:11:07;;;;;;;7.45;6.60;;;;;30.70;101871.00;;;;5110001;28;20197;-77